Time;durP1;ratioP1;P1;durP2;ratioP2;P2;SDS_P1;SDS_P2;PMS_P1;PMS_P2;Temp;Humidity;BMP_temperature;BMP_pressure;BME280_temperature;BME280_humidity;BME280_pressure;Samples;Min_cycle;Max_cycle;Signal;HPM_P1;HPM_P2
2023/02/17 00:00:34;;;;;;;21.00;14.27;;;3.60;69.70;;;;;;5085935;28;20107;-61
2023/02/17 00:03:00;;;;;;;18.70;11.90;;;3.50;69.90;;;;;;5080805;28;20029;-61
2023/02/17 00:05:26;;;;;;;19.65;12.82;;;3.60;70.00;;;;;;5085890;28;20028;-61
2023/02/17 00:07:53;;;;;;;18.73;12.18;;;3.60;70.00;;;;;;5084266;28;20177;-61
2023/02/17 00:10:18;;;;;;;17.35;12.00;;;3.60;69.80;;;;;;5092720;28;20032;-61
2023/02/17 00:12:44;;;;;;;15.05;10.73;;;3.60;69.80;;;;;;5083977;28;20285;-60
2023/02/17 00:15:10;;;;;;;14.75;11.15;;;3.70;69.80;;;;;;5092789;28;20065;-61
2023/02/17 00:17:37;;;;;;;17.63;11.38;;;3.70;69.70;;;;;;5089943;28;20055;-61
2023/02/17 00:20:03;;;;;;;18.70;11.00;;;3.70;69.60;;;;;;5086725;28;20085;-61
2023/02/17 00:22:29;;;;;;;17.98;10.35;;;3.80;69.40;;;;;;5082474;28;20095;-61
2023/02/17 00:24:55;;;;;;;18.85;11.38;;;3.80;69.40;;;;;;5076376;28;20432;-61
2023/02/17 00:27:20;;;;;;;17.38;11.65;;;3.80;69.30;;;;;;5088482;28;20031;-61
2023/02/17 00:29:46;;;;;;;18.83;11.18;;;3.80;69.20;;;;;;5083220;28;20422;-61
2023/02/17 00:32:12;;;;;;;17.40;11.07;;;3.80;69.20;;;;;;5081428;28;20398;-61
2023/02/17 00:34:38;;;;;;;16.48;11.07;;;3.80;69.20;;;;;;5081193;28;20375;-61
2023/02/17 00:37:04;;;;;;;15.70;10.80;;;3.80;69.20;;;;;;5088983;28;20127;-61
2023/02/17 00:39:29;;;;;;;21.23;11.70;;;3.80;69.30;;;;;;5085968;28;20671;-61
2023/02/17 00:41:55;;;;;;;15.88;11.93;;;3.70;69.20;;;;;;5090455;28;20087;-61
2023/02/17 00:44:23;;;;;;;16.60;11.55;;;3.70;69.00;;;;;;5087341;28;20030;-61
2023/02/17 00:46:49;;;;;;;20.00;11.98;;;3.70;69.00;;;;;;5090616;28;20016;-61
2023/02/17 00:49:21;;;;;;;16.58;11.50;;;3.70;69.00;;;;;;5085969;28;20470;-61
2023/02/17 00:51:47;;;;;;;17.17;11.13;;;3.70;69.10;;;;;;5088828;28;20147;-61
2023/02/17 00:54:13;;;;;;;17.42;12.23;;;3.70;69.20;;;;;;5090617;28;20106;-61
2023/02/17 00:56:39;;;;;;;17.88;11.40;;;3.70;69.30;;;;;;5091239;28;20035;-59
2023/02/17 00:59:06;;;;;;;18.20;11.60;;;3.80;69.30;;;;;;5088743;28;20052;-59
2023/02/17 01:01:32;;;;;;;21.98;12.77;;;3.80;69.20;;;;;;5090881;28;20081;-63
2023/02/17 01:03:58;;;;;;;18.20;12.55;;;3.80;69.10;;;;;;5083121;28;20024;-63
2023/02/17 01:06:27;;;;;;;21.10;13.65;;;3.90;69.10;;;;;;5079088;28;20458;-63
2023/02/17 01:08:52;;;;;;;18.45;13.10;;;3.90;69.00;;;;;;5092984;28;20076;-62
2023/02/17 01:11:20;;;;;;;17.40;12.75;;;3.80;68.90;;;;;;5091666;28;20066;-60
2023/02/17 01:13:45;;;;;;;17.10;12.20;;;3.80;68.90;;;;;;5088819;28;20028;-60
2023/02/17 01:16:20;;;;;;;19.02;12.80;;;3.80;68.90;;;;;;5088139;28;20486;-63
2023/02/17 01:18:46;;;;;;;17.30;12.27;;;3.70;68.80;;;;;;5086084;28;20475;-63
2023/02/17 01:21:22;;;;;;;18.85;12.50;;;3.70;68.90;;;;;;5083414;28;20058;-52
2023/02/17 01:23:49;;;;;;;19.83;13.25;;;3.60;69.00;;;;;;5079870;28;20115;-53
2023/02/17 01:26:17;;;;;;;17.80;12.13;;;3.60;69.10;;;;;;5077720;28;20055;-68
2023/02/17 01:28:42;;;;;;;18.67;12.02;;;3.60;69.20;;;;;;5083703;28;20103;-67
2023/02/17 01:31:09;;;;;;;17.02;11.38;;;3.60;69.40;;;;;;5083184;28;20435;-67
2023/02/17 01:33:35;;;;;;;19.08;12.20;;;3.60;69.30;;;;;;5074442;28;20036;-68
2023/02/17 01:36:02;;;;;;;17.05;11.43;;;3.60;69.30;;;;;;5094739;28;20035;-63
2023/02/17 01:38:28;;;;;;;22.02;12.57;;;3.70;69.30;;;;;;5094222;28;20034;-63
2023/02/17 01:40:54;;;;;;;17.15;11.85;;;3.70;69.20;;;;;;5094563;28;20107;-54
2023/02/17 01:43:20;;;;;;;21.30;13.05;;;3.70;69.00;;;;;;5094563;28;20430;-54
2023/02/17 01:45:50;;;;;;;22.23;13.15;;;3.80;69.00;;;;;;5094217;28;20501;-54
2023/02/17 01:48:20;;;;;;;19.92;13.23;;;3.70;68.90;;;;;;5094127;28;20028;-54
2023/02/17 01:50:51;;;;;;;21.30;12.85;;;3.70;68.90;;;;;;5094512;28;20413;-53
2023/02/17 01:53:21;;;;;;;20.10;13.52;;;3.70;68.90;;;;;;5093922;28;20047;-54
2023/02/17 01:55:48;;;;;;;20.73;13.13;;;3.70;68.90;;;;;;5093840;28;20115;-53
2023/02/17 01:58:18;;;;;;;22.00;13.50;;;3.70;68.90;;;;;;5094573;28;20519;-54
2023/02/17 02:00:44;;;;;;;20.25;13.13;;;3.70;68.90;;;;;;5094081;28;20491;-54
2023/02/17 02:03:12;;;;;;;22.25;13.85;;;3.70;68.90;;;;;;5094538;28;20032;-53
2023/02/17 02:05:40;;;;;;;20.20;13.18;;;3.70;68.90;;;;;;5093588;28;20032;-54
2023/02/17 02:08:07;;;;;;;20.02;13.25;;;3.60;68.80;;;;;;5094336;28;20052;-53
2023/02/17 02:10:33;;;;;;;22.23;14.55;;;3.60;68.80;;;;;;5093594;28;20423;-54
2023/02/17 02:12:59;;;;;;;19.10;13.63;;;3.60;68.80;;;;;;5093699;28;20078;-52
2023/02/17 02:15:33;;;;;;;21.70;13.45;;;3.50;68.90;;;;;;5094408;28;20024;-55
2023/02/17 02:18:08;;;;;;;20.13;12.95;;;3.50;69.00;;;;;;5093861;28;20481;-53
2023/02/17 02:21:01;;;;;;;20.98;12.85;;;3.50;69.10;;;;;;5093903;28;20099;-54
2023/02/17 02:24:14;;;;;;;19.92;12.77;;;3.50;69.10;;;;;;5094089;28;20024;-53
2023/02/17 02:26:52;;;;;;;21.13;12.57;;;3.40;69.00;;;;;;5011273;28;20105;-54
2023/02/17 02:29:45;;;;;;;21.27;13.77;;;3.40;69.10;;;;;;5011851;28;20484;-53
2023/02/17 02:32:47;;;;;;;21.80;12.95;;;3.40;69.10;;;;;;5077256;28;20049;-54
2023/02/17 02:35:28;;;;;;;;;;;3.40;69.00;;;;;;5080682;28;20040;-52
2023/02/17 02:38:00;;;;;;;20.08;13.35;;;3.30;69.00;;;;;;5093750;28;20399;-52
2023/02/17 02:40:31;;;;;;;22.42;14.88;;;3.30;69.10;;;;;;5093686;28;20032;-55
2023/02/17 02:42:59;;;;;;;21.17;13.50;;;3.30;69.20;;;;;;5093887;28;20094;-53
2023/02/17 02:45:25;;;;;;;21.48;14.07;;;3.30;69.30;;;;;;5093095;28;20051;-59
2023/02/17 02:47:55;;;;;;;23.42;14.98;;;3.30;69.40;;;;;;5093806;28;20040;-59
2023/02/17 02:50:39;;;;;;;25.40;15.13;;;3.30;69.50;;;;;;5093774;28;20080;-61
2023/02/17 02:53:04;;;;;;;21.25;14.20;;;3.30;69.60;;;;;;5093553;28;20035;-61
2023/02/17 02:55:37;;;;;;;24.70;15.85;;;3.40;69.70;;;;;;5093942;28;20018;-52
2023/02/17 02:58:15;;;;;;;21.92;14.63;;;3.40;69.60;;;;;;5093846;28;20471;-49
2023/02/17 03:00:46;;;;;;;23.50;15.30;;;3.50;69.50;;;;;;5095330;28;20028;-53
2023/02/17 03:03:34;;;;;;;22.25;14.43;;;3.50;69.50;;;;;;5097613;28;20070;-51
2023/02/17 03:06:21;;;;;;;24.88;15.43;;;3.50;69.30;;;;;;5097241;28;20047;-57
2023/02/17 03:08:59;;;;;;;23.58;14.80;;;3.50;69.40;;;;;;5097636;28;20047;-53
2023/02/17 03:11:31;;;;;;;19.23;14.30;;;3.60;69.30;;;;;;5097450;28;20040;-64
2023/02/17 03:14:12;;;;;;;23.20;14.70;;;3.60;69.30;;;;;;5098065;28;20028;-64
2023/02/17 03:16:39;;;;;;;19.98;14.15;;;3.60;69.40;;;;;;5096627;28;20073;-55
2023/02/17 03:19:05;;;;;;;23.35;14.73;;;3.60;69.50;;;;;;5096854;28;20024;-54
2023/02/17 03:21:39;;;;;;;16.85;11.70;;;3.60;69.50;;;;;;5097276;28;20028;-63
2023/02/17 03:24:05;;;;;;;15.18;10.15;;;3.60;69.50;;;;;;5096935;28;20444;-63
2023/02/17 03:26:31;;;;;;;13.20;9.63;;;3.60;69.50;;;;;;5097042;28;20111;-63
2023/02/17 03:28:56;;;;;;;15.20;10.82;;;3.70;69.50;;;;;;5097145;28;20525;-63
2023/02/17 03:31:22;;;;;;;13.73;9.90;;;3.70;69.00;;;;;;5096408;28;20494;-54
2023/02/17 03:33:48;;;;;;;12.38;8.90;;;3.80;68.90;;;;;;5096790;28;20094;-49
2023/02/17 03:36:13;;;;;;;13.02;8.95;;;3.80;68.70;;;;;;5096386;28;20035;-61
2023/02/17 03:38:39;;;;;;;12.43;9.02;;;3.90;68.50;;;;;;5096707;28;20405;-61
2023/02/17 03:41:05;;;;;;;13.25;9.10;;;3.90;68.30;;;;;;5096478;28;20032;-53
2023/02/17 03:43:30;;;;;;;12.70;8.65;;;3.90;68.20;;;;;;5096331;28;20050;-51
2023/02/17 03:45:56;;;;;;;12.13;8.95;;;3.90;68.00;;;;;;5096641;28;20031;-67
2023/02/17 03:48:21;;;;;;;11.13;8.30;;;3.90;67.90;;;;;;5096576;28;20035;-68
2023/02/17 03:50:47;;;;;;;12.05;8.57;;;4.00;67.90;;;;;;5096600;28;20032;-51
2023/02/17 03:53:13;;;;;;;12.05;8.48;;;4.00;68.00;;;;;;5096459;28;20070;-51
2023/02/17 03:55:38;;;;;;;11.15;8.50;;;4.00;67.70;;;;;;5096816;28;20028;-63
2023/02/17 03:58:04;;;;;;;10.48;8.25;;;4.00;67.70;;;;;;5096698;28;20477;-64
2023/02/17 04:00:30;;;;;;;10.73;8.55;;;4.10;67.70;;;;;;5096402;28;20100;-62
2023/02/17 04:02:56;;;;;;;11.85;7.97;;;4.10;67.70;;;;;;5095979;28;20035;-62
2023/02/17 04:05:22;;;;;;;10.30;7.63;;;4.20;67.60;;;;;;5096152;28;20450;-62
2023/02/17 04:07:48;;;;;;;11.32;8.30;;;4.20;67.40;;;;;;5096161;28;20051;-62
2023/02/17 04:10:15;;;;;;;9.65;7.60;;;4.20;67.40;;;;;;5095865;28;20024;-61
2023/02/17 04:12:40;;;;;;;10.05;7.30;;;4.20;67.40;;;;;;5094708;28;20108;-61
2023/02/17 04:15:06;;;;;;;11.05;8.50;;;4.20;67.40;;;;;;5095937;28;20064;-61
2023/02/17 04:17:34;;;;;;;12.88;8.93;;;4.20;67.90;;;;;;5095921;28;20031;-61
2023/02/17 04:20:00;;;;;;;12.93;9.75;;;4.20;67.20;;;;;;5095642;28;20107;-61
2023/02/17 04:22:25;;;;;;;14.15;9.30;;;4.20;67.10;;;;;;5096526;28;20063;-63
2023/02/17 04:24:51;;;;;;;12.45;9.60;;;4.10;67.10;;;;;;5096357;28;20036;-63
2023/02/17 04:27:16;;;;;;;13.38;9.57;;;4.10;67.00;;;;;;5095718;28;20036;-61
2023/02/17 04:29:42;;;;;;;14.43;9.77;;;4.10;67.00;;;;;;5095123;28;20031;-61
2023/02/17 04:32:07;;;;;;;15.60;10.25;;;4.00;67.10;;;;;;5095420;28;20067;-61
2023/02/17 04:34:33;;;;;;;14.88;9.63;;;4.10;67.30;;;;;;5095683;28;20032;-61
2023/02/17 04:36:59;;;;;;;12.82;9.57;;;4.00;67.30;;;;;;5096237;28;20095;-63
2023/02/17 04:39:24;;;;;;;11.60;9.38;;;4.10;67.40;;;;;;5095903;28;20032;-64
2023/02/17 04:41:50;;;;;;;11.77;9.05;;;4.10;67.40;;;;;;5096621;28;20382;-63
2023/02/17 04:44:15;;;;;;;13.35;9.55;;;4.20;67.50;;;;;;5095971;28;20481;-64
2023/02/17 04:46:41;;;;;;;14.82;9.80;;;4.20;67.40;;;;;;5096083;28;20020;-68
2023/02/17 04:49:07;;;;;;;12.80;9.98;;;4.20;67.50;;;;;;5095447;28;20027;-68
2023/02/17 04:51:32;;;;;;;12.10;9.52;;;4.30;67.40;;;;;;5095965;28;20413;-61
2023/02/17 04:53:58;;;;;;;13.07;9.18;;;4.30;67.30;;;;;;5094406;28;20060;-61
2023/02/17 04:56:23;;;;;;;11.95;8.63;;;4.40;67.30;;;;;;5095405;28;20107;-60
2023/02/17 04:58:49;;;;;;;12.18;8.80;;;4.40;67.20;;;;;;5095161;28;20059;-60
2023/02/17 05:01:15;;;;;;;11.23;8.25;;;4.50;67.10;;;;;;5095117;28;20040;-50
2023/02/17 05:03:41;;;;;;;10.73;8.30;;;4.50;66.90;;;;;;5095284;28;20028;-49
2023/02/17 05:06:06;;;;;;;11.35;8.70;;;4.50;66.90;;;;;;5095167;28;20339;-67
2023/02/17 05:08:32;;;;;;;12.20;8.73;;;4.50;66.80;;;;;;5095351;28;20109;-67
2023/02/17 05:10:57;;;;;;;13.20;9.05;;;4.50;66.70;;;;;;5094927;28;20115;-63
2023/02/17 05:13:23;;;;;;;12.98;9.05;;;4.60;66.70;;;;;;5095583;28;20402;-63
2023/02/17 05:15:49;;;;;;;12.50;8.65;;;4.60;67.40;;;;;;5095275;28;20516;-63
2023/02/17 05:18:14;;;;;;;12.50;8.98;;;4.60;66.60;;;;;;5095158;28;20053;-63
2023/02/17 05:20:40;;;;;;;11.43;7.93;;;4.70;66.50;;;;;;5095052;28;20073;-64
2023/02/17 05:23:06;;;;;;;12.80;9.10;;;4.70;66.50;;;;;;5094717;28;20110;-63
2023/02/17 05:25:32;;;;;;;12.20;8.73;;;4.70;66.50;;;;;;5094721;28;20060;-63
2023/02/17 05:27:57;;;;;;;11.93;8.98;;;4.70;66.40;;;;;;5094847;28;20024;-62
2023/02/17 05:30:24;;;;;;;16.90;9.88;;;4.70;66.40;;;;;;5094940;28;20098;-62
2023/02/17 05:32:49;;;;;;;13.55;9.38;;;4.80;66.50;;;;;;5094955;28;20343;-63
2023/02/17 05:35:15;;;;;;;12.05;9.27;;;4.70;66.30;;;;;;5094369;28;20093;-64
2023/02/17 05:37:41;;;;;;;13.40;9.13;;;4.80;66.20;;;;;;5076656;28;20074;-64
2023/02/17 05:40:07;;;;;;;13.45;8.93;;;4.80;66.10;;;;;;5095147;28;20043;-63
2023/02/17 05:42:33;;;;;;;13.05;9.50;;;4.80;66.00;;;;;;5094551;28;20036;-63
2023/02/17 05:44:59;;;;;;;14.93;9.43;;;4.90;66.00;;;;;;5094402;28;20032;-63
2023/02/17 05:47:24;;;;;;;12.75;9.60;;;4.90;65.90;;;;;;5095077;28;20055;-63
2023/02/17 05:49:50;;;;;;;14.23;9.75;;;4.80;65.50;;;;;;5094218;28;20023;-63
2023/02/17 05:52:17;;;;;;;11.65;8.85;;;4.80;65.50;;;;;;5094760;28;20031;-64
2023/02/17 05:54:43;;;;;;;13.95;9.18;;;4.80;65.50;;;;;;5095074;28;20028;-64
2023/02/17 05:57:08;;;;;;;12.65;9.32;;;4.70;65.40;;;;;;5094988;28;20032;-63
2023/02/17 05:59:34;;;;;;;10.75;8.85;;;4.70;65.60;;;;;;5094603;28;20128;-63
2023/02/17 06:02:00;;;;;;;14.00;10.00;;;4.70;65.80;;;;;;5094768;28;20028;-63
2023/02/17 06:04:25;;;;;;;19.60;13.88;;;4.70;65.80;;;;;;5094864;28;20028;-63
2023/02/17 06:06:51;;;;;;;15.68;11.32;;;4.70;65.80;;;;;;5094141;28;20093;-63
2023/02/17 06:09:17;;;;;;;15.27;10.95;;;4.70;65.90;;;;;;5094155;28;20081;-63
2023/02/17 06:11:43;;;;;;;17.23;11.85;;;4.70;65.90;;;;;;5094152;28;20032;-53
2023/02/17 06:14:08;;;;;;;16.42;11.57;;;4.70;65.90;;;;;;5094152;28;20074;-50
2023/02/17 06:16:34;;;;;;;17.92;12.38;;;4.70;65.90;;;;;;5094103;28;20123;-61
2023/02/17 06:19:01;;;;;;;18.10;12.50;;;4.60;66.00;;;;;;5094397;28;20431;-61
2023/02/17 06:21:27;;;;;;;19.83;14.38;;;4.70;66.10;;;;;;5081286;28;20042;-54
2023/02/17 06:23:53;;;;;;;18.10;12.63;;;4.70;66.10;;;;;;5089828;28;20086;-54
2023/02/17 06:26:19;;;;;;;19.30;13.73;;;4.70;66.10;;;;;;5073333;28;20017;-54
2023/02/17 06:28:45;;;;;;;19.42;14.48;;;4.70;66.10;;;;;;5073236;28;20028;-54
2023/02/17 06:31:10;;;;;;;21.25;14.95;;;4.80;66.10;;;;;;5074695;28;20024;-53
2023/02/17 06:33:36;;;;;;;20.40;15.00;;;4.80;66.10;;;;;;5077905;28;20103;-53
2023/02/17 06:36:02;;;;;;;21.75;15.43;;;4.80;65.90;;;;;;5090320;28;20047;-51
2023/02/17 06:38:27;;;;;;;20.38;16.55;;;4.80;66.00;;;;;;5074043;28;20032;-51
2023/02/17 06:40:53;;;;;;;21.92;14.98;;;4.80;66.10;;;;;;5076752;28;20072;-50
2023/02/17 06:43:19;;;;;;;21.90;15.70;;;4.90;66.10;;;;;;5077221;28;20581;-52
2023/02/17 06:45:45;;;;;;;23.33;16.90;;;4.90;66.20;;;;;;5076369;28;20029;-51
2023/02/17 06:48:10;;;;;;;22.60;16.83;;;4.90;66.20;;;;;;5077369;28;20467;-50
2023/02/17 06:50:36;;;;;;;26.77;15.90;;;4.90;66.10;;;;;;5079725;28;20028;-50
2023/02/17 06:53:02;;;;;;;22.27;16.50;;;4.90;66.10;;;;;;5086487;28;20036;-50
2023/02/17 06:55:27;;;;;;;20.80;15.73;;;5.00;66.10;;;;;;5086197;28;20420;-50
2023/02/17 06:57:53;;;;;;;23.48;17.15;;;5.00;66.10;;;;;;5087726;28;20047;-52
2023/02/17 07:00:20;;;;;;;19.95;14.90;;;5.00;66.00;;;;;;5079242;28;20025;-56
2023/02/17 07:02:45;;;;;;;20.17;15.70;;;5.00;66.00;;;;;;5059109;28;20024;-50
2023/02/17 07:05:11;;;;;;;20.08;14.57;;;5.00;66.20;;;;;;5086782;28;20032;-49
2023/02/17 07:07:37;;;;;;;20.17;14.10;;;5.00;66.30;;;;;;5086135;28;20048;-50
2023/02/17 07:10:03;;;;;;;18.42;13.63;;;5.00;66.30;;;;;;5079427;28;20040;-49
2023/02/17 07:12:29;;;;;;;19.05;13.65;;;5.10;66.30;;;;;;5081235;28;20034;-50
2023/02/17 07:14:54;;;;;;;17.65;13.13;;;5.20;66.10;;;;;;5078413;28;20037;-50
2023/02/17 07:17:20;;;;;;;17.75;11.88;;;5.20;66.00;;;;;;5080405;28;20032;-54
2023/02/17 07:19:46;;;;;;;21.08;12.32;;;5.20;66.00;;;;;;5077537;28;20035;-53
2023/02/17 07:22:11;;;;;;;17.40;11.93;;;5.20;66.10;;;;;;5080444;28;20035;-52
2023/02/17 07:24:37;;;;;;;15.35;11.70;;;5.20;66.20;;;;;;5084143;28;20120;-51
2023/02/17 07:27:05;;;;;;;15.20;11.02;;;5.30;66.10;;;;;;5081540;28;20029;-58
2023/02/17 07:29:30;;;;;;;15.43;11.02;;;5.30;66.10;;;;;;5077911;28;20024;-53
2023/02/17 07:31:56;;;;;;;14.98;10.98;;;5.30;66.20;;;;;;5081582;28;20043;-53
2023/02/17 07:34:22;;;;;;;12.57;9.43;;;5.30;66.20;;;;;;5078777;28;20370;-57
2023/02/17 07:36:48;;;;;;;16.35;11.25;;;5.20;66.40;;;;;;5079078;28;20024;-49
2023/02/17 07:39:14;;;;;;;14.23;10.73;;;5.20;66.60;;;;;;5077796;28;20103;-52
2023/02/17 07:41:40;;;;;;;15.82;10.60;;;5.20;66.60;;;;;;5074777;28;20512;-50
2023/02/17 07:44:05;;;;;;;13.70;9.65;;;5.20;66.90;;;;;;5077671;28;20028;-50
2023/02/17 07:46:31;;;;;;;13.68;9.77;;;5.10;66.90;;;;;;5077598;28;20032;-57
2023/02/17 07:48:57;;;;;;;14.45;10.38;;;5.10;67.10;;;;;;5076264;28;20036;-50
2023/02/17 07:51:24;;;;;;;15.27;10.95;;;5.10;67.10;;;;;;5075525;28;20118;-52
2023/02/17 07:53:50;;;;;;;16.30;10.85;;;5.10;67.10;;;;;;5074619;28;20029;-54
2023/02/17 07:56:20;;;;;;;13.55;10.88;;;5.10;67.10;;;;;;5072961;28;20385;-56
2023/02/17 07:58:46;;;;;;;16.70;11.73;;;5.10;67.10;;;;;;5080116;28;20077;-50
2023/02/17 08:01:21;;;;;;;14.90;10.88;;;5.20;67.20;;;;;;5074114;28;20036;-49
2023/02/17 08:03:48;;;;;;;17.58;11.60;;;5.20;67.20;;;;;;5070072;28;20024;-52
2023/02/17 08:06:20;;;;;;;15.95;11.65;;;5.20;67.20;;;;;;5071389;28;20095;-58
2023/02/17 08:14:16;;;;;;;14.13;10.52;;;5.40;66.80;;;;;;5077854;28;20118;-47
2023/02/17 08:16:42;;;;;;;16.90;12.15;;;5.60;66.60;;;;;;5074851;28;20050;-53
2023/02/17 08:19:08;;;;;;;16.38;11.93;;;5.70;66.50;;;;;;5074882;28;20454;-50
2023/02/17 08:21:34;;;;;;;17.80;12.48;;;5.70;66.40;;;;;;5072508;28;20047;-52
2023/02/17 08:24:00;;;;;;;16.88;12.60;;;5.80;66.30;;;;;;5079136;28;20103;-53
2023/02/17 08:26:25;;;;;;;17.10;12.23;;;5.90;66.20;;;;;;5094267;28;20079;-53
2023/02/17 08:28:51;;;;;;;16.83;12.00;;;5.90;66.00;;;;;;5094848;28;20453;-50
2023/02/17 08:31:19;;;;;;;17.25;11.88;;;6.00;66.10;;;;;;5089836;28;20032;-48
2023/02/17 08:33:45;;;;;;;18.23;12.85;;;6.00;66.00;;;;;;5087128;28;20126;-51
2023/02/17 08:36:11;;;;;;;15.00;11.73;;;6.10;66.00;;;;;;5087469;28;20025;-52
2023/02/17 08:38:37;;;;;;;16.60;11.93;;;6.10;66.00;;;;;;5063648;28;20389;-51
2023/02/17 08:41:11;;;;;;;17.27;12.27;;;6.10;65.90;;;;;;5080254;28;20414;-50
2023/02/17 08:43:37;;;;;;;18.52;11.80;;;6.20;66.00;;;;;;5080901;28;20443;-53
2023/02/17 08:46:07;;;;;;;17.98;12.18;;;6.20;65.80;;;;;;5095023;28;20032;-49
2023/02/17 08:48:32;;;;;;;16.33;11.25;;;6.30;66.00;;;;;;5095037;28;20031;-48
2023/02/17 08:50:58;;;;;;;16.65;11.52;;;6.30;65.80;;;;;;5095131;28;20027;-48
2023/02/17 08:53:24;;;;;;;14.30;11.27;;;6.40;65.60;;;;;;5091267;28;20036;-48
2023/02/17 08:55:49;;;;;;;16.70;11.05;;;6.40;66.20;;;;;;5085619;28;20031;-47
2023/02/17 08:58:15;;;;;;;15.00;10.55;;;6.40;65.60;;;;;;5079255;28;20445;-51
2023/02/17 09:00:40;;;;;;;14.07;10.63;;;6.50;65.40;;;;;;5089584;28;20459;-50
2023/02/17 09:03:06;;;;;;;13.82;10.63;;;6.50;65.30;;;;;;5081989;28;20028;-49
2023/02/17 09:05:34;;;;;;;15.02;9.88;;;6.60;65.40;;;;;;5086720;28;20445;-50
2023/02/17 09:08:00;;;;;;;16.33;11.32;;;6.60;65.30;;;;;;5061717;28;20048;-52
2023/02/17 09:10:26;;;;;;;15.10;10.93;;;6.60;65.20;;;;;;5085093;28;20067;-52
2023/02/17 09:12:51;;;;;;;12.93;10.65;;;6.70;65.00;;;;;;5087252;28;20047;-48
2023/02/17 09:15:17;;;;;;;15.20;11.40;;;6.70;64.80;;;;;;5094743;28;20137;-50
2023/02/17 09:17:43;;;;;;;16.38;11.32;;;6.70;64.60;;;;;;5094654;28;20048;-50
2023/02/17 09:20:10;;;;;;;17.25;11.75;;;6.70;64.50;;;;;;5093829;28;20023;-50
2023/02/17 09:22:36;;;;;;;14.13;10.73;;;6.80;64.50;;;;;;5093959;28;20060;-53
2023/02/17 09:25:03;;;;;;;16.20;12.13;;;6.80;64.50;;;;;;5094897;28;20057;-48
2023/02/17 09:27:29;;;;;;;17.00;11.27;;;6.80;64.30;;;;;;5094157;28;20032;-45
2023/02/17 09:29:56;;;;;;;15.82;11.70;;;6.90;64.60;;;;;;5093753;28;20046;-50
2023/02/17 09:32:22;;;;;;;17.02;11.40;;;6.90;64.20;;;;;;5094524;28;20024;-48
2023/02/17 09:34:50;;;;;;;14.75;11.27;;;7.00;64.20;;;;;;5094057;28;20039;-50
2023/02/17 09:37:16;;;;;;;15.95;11.27;;;7.00;64.00;;;;;;5093931;28;20020;-53
2023/02/17 09:39:43;;;;;;;13.80;10.70;;;7.00;63.90;;;;;;5094067;28;20038;-51
2023/02/17 09:42:19;;;;;;;13.68;10.45;;;7.10;63.90;;;;;;5094244;28;20473;-51
2023/02/17 09:44:50;;;;;;;12.25;9.70;;;7.10;63.80;;;;;;5094041;28;20043;-51
2023/02/17 09:47:21;;;;;;;13.40;9.88;;;7.10;63.70;;;;;;5094252;28;20020;-50
2023/02/17 09:50:17;;;;;;;13.18;8.48;;;7.10;63.60;;;;;;5094358;28;20088;-49
2023/02/17 09:53:01;;;;;;;11.35;8.20;;;7.10;63.80;;;;;;5094022;28;20032;-49
2023/02/17 09:55:28;;;;;;;11.05;8.02;;;7.10;63.90;;;;;;5093987;28;20060;-52
2023/02/17 09:57:54;;;;;;;10.30;7.70;;;7.20;64.00;;;;;;5094593;28;20366;-51
2023/02/17 10:00:29;;;;;;;9.63;7.95;;;7.20;63.80;;;;;;5094017;28;20035;-49
2023/02/17 10:03:23;;;;;;;11.77;8.13;;;7.20;63.80;;;;;;5094074;28;20374;-49
2023/02/17 10:05:58;;;;;;;10.52;7.63;;;7.20;63.60;;;;;;5093981;28;20070;-45
2023/02/17 10:08:30;;;;;;;10.52;7.47;;;7.30;63.70;;;;;;5094375;28;20055;-49
2023/02/17 10:11:03;;;;;;;10.82;8.60;;;7.30;63.70;;;;;;5097643;28;20355;-47
2023/02/17 10:13:32;;;;;;;10.32;7.63;;;7.30;63.60;;;;;;5098218;28;20036;-53
2023/02/17 10:16:05;;;;;;;11.05;7.10;;;7.30;63.70;;;;;;5097956;28;20370;-49
2023/02/17 10:18:42;;;;;;;9.20;7.00;;;7.40;63.70;;;;;;5097914;28;20028;-49
2023/02/17 10:21:24;;;;;;;10.00;7.40;;;7.40;63.80;;;;;;5097848;28;20090;-50
2023/02/17 10:23:52;;;;;;;9.10;7.63;;;7.40;63.90;;;;;;5097757;28;20028;-48
2023/02/17 10:26:56;;;;;;;9.38;7.55;;;7.40;63.90;;;;;;5097522;28;20382;-47
2023/02/17 10:29:52;;;;;;;10.73;7.63;;;7.40;63.90;;;;;;5052130;28;20088;-49
2023/02/17 10:32:23;;;;;;;8.57;6.95;;;7.40;64.00;;;;;;5097352;28;20465;-49
2023/02/17 10:35:07;;;;;;;10.50;7.65;;;7.40;64.10;;;;;;5097859;28;20052;-48
2023/02/17 10:37:44;;;;;;;9.95;7.97;;;7.50;64.10;;;;;;5097599;28;20024;-50
2023/02/17 10:40:24;;;;;;;10.80;7.45;;;7.40;63.90;;;;;;5097540;28;20024;-53
2023/02/17 10:43:01;;;;;;;10.32;7.93;;;7.40;63.70;;;;;;5097728;28;20365;-49
2023/02/17 10:45:41;;;;;;;10.77;7.82;;;7.30;63.50;;;;;;5097590;28;20028;-48
2023/02/17 10:48:14;;;;;;;10.35;7.45;;;7.20;63.70;;;;;;5097434;28;20034;-49
2023/02/17 10:50:42;;;;;;;11.10;7.60;;;7.10;63.60;;;;;;5097020;28;20028;-51
2023/02/17 10:53:13;;;;;;;11.48;8.07;;;7.00;63.80;;;;;;5097331;28;20382;-49
2023/02/17 10:55:59;;;;;;;;;;;6.90;63.80;;;;;;5097694;28;20078;-50
2023/02/17 10:58:51;;;;;;;11.27;7.53;;;6.80;64.00;;;;;;5096569;28;19908;-50
2023/02/17 11:01:17;;;;;;;8.43;6.20;;;6.70;64.00;;;;;;5077736;28;20039;-50
2023/02/17 11:03:43;;;;;;;10.20;7.88;;;6.60;64.10;;;;;;5079461;28;20380;-47
2023/02/17 11:06:21;;;;;;;9.77;7.78;;;6.60;64.30;;;;;;5076521;28;20488;-54
2023/02/17 11:09:03;;;;;;;11.90;7.45;;;6.50;64.40;;;;;;5077441;28;20051;-53
2023/02/17 11:11:35;;;;;;;10.85;8.00;;;6.40;64.50;;;;;;5076282;28;20035;-55
2023/02/17 11:14:06;;;;;;;10.85;7.90;;;6.40;64.70;;;;;;5075912;28;20476;-52
2023/02/17 11:16:38;;;;;;;;;;;6.40;64.80;;;;;;5076612;28;20032;-47
2023/02/17 11:19:05;;;;;;;10.38;7.55;;;6.30;64.80;;;;;;5095300;28;20290;-48
2023/02/17 11:21:35;;;;;;;11.05;7.25;;;6.30;64.80;;;;;;5096307;28;20028;-53
2023/02/17 11:24:05;;;;;;;9.50;7.13;;;6.30;64.90;;;;;;5097030;28;20454;-53
2023/02/17 11:26:33;;;;;;;11.75;7.65;;;6.20;65.00;;;;;;5096863;28;20032;-54
2023/02/17 11:29:14;;;;;;;11.15;8.27;;;6.20;65.30;;;;;;5096827;28;20366;-51
2023/02/17 11:31:40;;;;;;;11.40;7.70;;;6.10;65.40;;;;;;5096045;28;20111;-53
2023/02/17 11:34:22;;;;;;;11.57;8.30;;;6.10;65.50;;;;;;5096219;28;20046;-50
2023/02/17 11:37:13;;;;;;;11.52;7.93;;;6.10;65.40;;;;;;5096358;28;20024;-53
2023/02/17 11:39:40;;;;;;;9.15;7.32;;;6.00;65.60;;;;;;5096696;28;20086;-49
2023/02/17 11:42:16;;;;;;;8.75;6.95;;;6.00;65.80;;;;;;5096434;28;20028;-54
2023/02/17 11:44:41;;;;;;;10.25;7.30;;;6.00;66.00;;;;;;5096217;28;20517;-51
2023/02/17 11:47:16;;;;;;;9.75;7.45;;;6.10;66.10;;;;;;5096773;28;20107;-51
2023/02/17 11:50:11;;;;;;;10.30;7.90;;;6.10;66.50;;;;;;5096418;28;20099;-49
2023/02/17 11:52:36;;;;;;;10.23;7.15;;;6.20;66.20;;;;;;5096352;28;20055;-52
2023/02/17 11:55:15;;;;;;;8.80;6.97;;;6.20;66.00;;;;;;5096624;28;20028;-50
2023/02/17 11:58:04;;;;;;;10.93;7.80;;;6.30;66.00;;;;;;5096551;28;20062;-54
2023/02/17 12:00:59;;;;;;;10.10;7.47;;;6.20;65.80;;;;;;5057708;28;20498;-54
2023/02/17 12:03:41;;;;;;;9.18;7.57;;;6.20;65.90;;;;;;5096112;28;20024;-52
2023/02/17 12:06:21;;;;;;;10.35;7.07;;;6.20;66.00;;;;;;5095956;28;20020;-50
2023/02/17 12:08:59;;;;;;;9.43;7.05;;;6.20;66.20;;;;;;5096787;28;20515;-50
2023/02/17 12:11:49;;;;;;;10.05;7.47;;;6.20;66.40;;;;;;5095918;28;20086;-52
2023/02/17 12:14:51;;;;;;;10.23;7.25;;;6.20;66.50;;;;;;5076894;28;20450;-51
2023/02/17 12:17:29;;;;;;;;;;;6.20;66.40;;;;;;5075992;28;20060;-50
2023/02/17 12:20:27;;;;;;;8.75;6.97;;;6.20;66.60;;;;;;5075816;28;19995;-52
2023/02/17 12:22:53;;;;;;;10.30;7.57;;;6.30;66.30;;;;;;5041413;28;20076;-53
2023/02/17 12:25:29;;;;;;;9.38;6.60;;;6.30;66.40;;;;;;5075319;28;20074;-50
2023/02/17 12:28:26;;;;;;;9.90;7.47;;;6.30;66.40;;;;;;5074915;28;20030;-53
2023/02/17 12:30:54;;;;;;;8.95;6.53;;;6.30;66.30;;;;;;5075059;28;20024;-49
2023/02/17 12:33:50;;;;;;;10.65;7.07;;;6.40;66.20;;;;;;5073928;28;20080;-50
2023/02/17 12:36:18;;;;;;;9.75;7.88;;;6.30;66.10;;;;;;5074718;28;20036;-48
2023/02/17 12:38:46;;;;;;;10.23;7.32;;;6.30;66.00;;;;;;5074800;28;20055;-52
2023/02/17 12:41:24;;;;;;;10.98;7.15;;;6.30;66.20;;;;;;5074662;28;20032;-51
2023/02/17 12:43:54;;;;;;;10.60;7.38;;;6.30;66.10;;;;;;5074652;28;20021;-48
2023/02/17 12:46:32;;;;;;;8.50;6.60;;;6.20;66.10;;;;;;5074916;28;20037;-51
2023/02/17 12:49:36;;;;;;;10.75;7.03;;;6.20;66.30;;;;;;5075343;28;20036;-48
2023/02/17 12:52:25;;;;;;;10.38;6.93;;;6.30;66.40;;;;;;5072729;28;20051;-48
2023/02/17 12:55:02;;;;;;;10.80;7.57;;;6.30;66.50;;;;;;5093335;28;20032;-50
2023/02/17 12:57:36;;;;;;;8.77;6.90;;;6.30;66.40;;;;;;5074443;28;20032;-47
2023/02/17 13:00:22;;;;;;;10.20;7.15;;;6.20;66.30;;;;;;5083381;28;20028;-47
2023/02/17 13:02:48;;;;;;;9.35;7.45;;;6.20;66.40;;;;;;5094184;28;20145;-52